Terminal Aerodrome Forecast
Issued by NWS

Home | Current Version | Previous Version | Text Only | Print | Product List | Glossary On
Versions: 1 2 3 4 5 6 7 8 9 10 11 12
243
FTUS46 KPDT 230539
TAFPSC
TAF
KPSC 230539Z 2306/2406 31008KT P6SM SCT100
     FM231700 23010KT P6SM BKN090
     FM240400 25012G22KT P6SM VCSH BKN070 BKN100=

USA.gov is the U.S. government's official web portal to all federal, state and local government web resources and services.